createdAt,value
2019-06-01T00:04:22.315Z,10.90
2019-06-01T00:09:29.624Z,10.80
2019-06-01T00:14:36.994Z,10.70
2019-06-01T00:19:44.175Z,10.70
2019-06-01T00:24:52.307Z,10.60
2019-06-01T00:30:00.509Z,10.50
2019-06-01T00:35:08.454Z,10.60
2019-06-01T00:40:15.631Z,10.50
2019-06-01T00:45:22.773Z,10.40
2019-06-01T00:50:30.855Z,10.20
2019-06-01T00:55:37.966Z,10.10
2019-06-01T01:00:47.773Z,10.10
2019-06-01T01:05:55.397Z,10.00
2019-06-01T01:11:02.686Z,9.90
2019-06-01T01:16:09.908Z,9.80
2019-06-01T01:21:17.159Z,9.70
2019-06-01T01:26:24.314Z,9.60
2019-06-01T01:31:32.259Z,9.60
2019-06-01T01:36:39.511Z,9.60
2019-06-01T01:41:47.995Z,9.60
2019-06-01T01:46:55.405Z,9.60
2019-06-01T01:52:02.666Z,9.50
2019-06-01T01:57:10.422Z,9.60
2019-06-01T02:02:17.589Z,9.60
2019-06-01T02:07:25.116Z,9.80
2019-06-01T02:12:32.971Z,10.00
2019-06-01T02:17:40.448Z,10.10
2019-06-01T02:22:48.520Z,10.30
2019-06-01T02:27:57.330Z,10.50
2019-06-01T02:33:05.703Z,10.70
2019-06-01T02:38:12.813Z,10.90
2019-06-01T02:43:20.009Z,11.00
2019-06-01T02:48:27.098Z,11.00
2019-06-01T02:53:34.190Z,11.10
2019-06-01T02:58:41.345Z,11.10
2019-06-01T03:03:48.754Z,11.20
2019-06-01T03:08:57.743Z,11.30
2019-06-01T03:14:08.813Z,11.30
2019-06-01T03:19:19.535Z,11.40
2019-06-01T03:24:27.068Z,11.40
2019-06-01T03:29:36.913Z,11.50
2019-06-01T03:34:43.955Z,11.50
2019-06-01T03:39:51.229Z,11.60
2019-06-01T03:44:58.345Z,11.60
2019-06-01T03:50:06.912Z,11.60
2019-06-01T03:55:14.273Z,11.70
2019-06-01T04:00:22.168Z,11.80
2019-06-01T04:05:29.354Z,11.80
2019-06-01T04:10:36.595Z,11.80
2019-06-01T04:15:43.694Z,11.90
2019-06-01T04:20:51.242Z,11.90
2019-06-01T04:25:58.551Z,12.00
2019-06-01T04:31:06.485Z,12.10
2019-06-01T04:36:13.814Z,12.20
2019-06-01T04:41:21.038Z,12.50
2019-06-01T04:46:28.888Z,12.70
2019-06-01T04:51:36.007Z,12.80
2019-06-01T04:56:43.245Z,13.10
2019-06-01T05:01:50.345Z,13.40
2019-06-01T05:06:57.949Z,13.70
2019-06-01T05:12:07.410Z,13.90
2019-06-01T05:17:15.398Z,14.10
2019-06-01T05:22:23.600Z,14.30
2019-06-01T05:27:30.776Z,14.60
2019-06-01T05:32:37.847Z,14.80
2019-06-01T05:37:44.962Z,15.00
2019-06-01T05:42:52.019Z,15.30
2019-06-01T05:47:59.164Z,15.80
2019-06-01T05:53:06.616Z,15.90
2019-06-01T05:58:14.980Z,16.00
2019-06-01T06:03:39.265Z,16.30
2019-06-01T06:08:32.121Z,16.50
2019-06-01T06:13:39.193Z,16.60
2019-06-01T06:18:46.414Z,16.80
2019-06-01T06:23:53.571Z,16.70
2019-06-01T06:29:00.635Z,16.70
2019-06-01T06:34:07.783Z,16.70
2019-06-01T06:39:15.839Z,16.80
2019-06-01T06:44:23.066Z,16.90
2019-06-01T06:49:30.147Z,17.10
2019-06-01T06:54:37.247Z,17.30
2019-06-01T06:59:45.749Z,17.50
2019-06-01T07:04:53.148Z,17.70
2019-06-01T07:10:01.139Z,17.90
2019-06-01T07:15:09.299Z,18.00
2019-06-01T07:20:19.529Z,18.20
2019-06-01T07:25:26.900Z,18.30
2019-06-01T07:30:49.438Z,18.30
2019-06-01T07:35:43.235Z,18.20
2019-06-01T07:40:51.735Z,18.20
2019-06-01T07:45:59.136Z,18.40
2019-06-01T07:51:06.391Z,18.30
2019-06-01T07:56:13.447Z,18.30
2019-06-01T08:01:22.766Z,18.40
2019-06-01T08:06:30.913Z,18.60
2019-06-01T08:11:38.722Z,18.80
2019-06-01T08:16:45.813Z,19.50
2019-06-01T08:21:52.903Z,20.10
2019-06-01T08:27:00.311Z,20.10
2019-06-01T08:32:07.378Z,20.10
2019-06-01T08:37:14.424Z,20.30
2019-06-01T08:42:23.442Z,20.40
2019-06-01T08:47:31.827Z,20.80
2019-06-01T08:52:39.172Z,21.40
2019-06-01T08:57:46.252Z,21.20
2019-06-01T09:02:54.259Z,21.60
2019-06-01T09:08:01.452Z,22.00
2019-06-01T09:13:09.310Z,21.80
2019-06-01T09:18:16.389Z,21.70
2019-06-01T09:23:27.670Z,21.30
2019-06-01T09:28:36.082Z,21.20
2019-06-01T09:33:43.330Z,22.10
2019-06-01T09:38:50.357Z,22.70
2019-06-01T09:43:57.434Z,22.90
2019-06-01T09:49:04.538Z,23.50
2019-06-01T09:54:11.630Z,24.00
2019-06-01T09:59:18.719Z,23.60
2019-06-01T10:04:25.780Z,23.00
2019-06-01T10:09:33.688Z,23.10
2019-06-01T10:14:40.808Z,23.60
2019-06-01T10:19:47.879Z,23.80
2019-06-01T10:24:54.991Z,23.20
2019-06-01T10:30:02.776Z,22.80
2019-06-01T10:35:10.052Z,23.30
2019-06-01T10:40:17.227Z,23.30
2019-06-01T10:45:25.408Z,23.60
2019-06-01T10:50:34.865Z,23.60
2019-06-01T10:55:42.525Z,23.30
2019-06-01T11:00:51.516Z,22.70
2019-06-01T11:05:59.442Z,22.40
2019-06-01T11:11:06.512Z,22.70
2019-06-01T11:16:13.627Z,23.40
2019-06-01T11:21:21.265Z,24.30
2019-06-01T11:26:28.328Z,23.80
2019-06-01T11:31:35.973Z,23.20
2019-06-01T11:37:01.823Z,23.00
2019-06-01T11:41:52.079Z,23.70
2019-06-01T11:46:59.130Z,24.50
2019-06-01T11:52:08.267Z,24.30
2019-06-01T11:57:15.325Z,23.40
2019-06-01T12:02:24.097Z,23.00
2019-06-01T12:07:31.666Z,23.50
2019-06-01T12:12:40.213Z,24.10
2019-06-01T12:17:47.719Z,24.00
2019-06-01T12:22:54.768Z,23.90
2019-06-01T12:28:02.147Z,24.70
2019-06-01T12:33:10.451Z,25.30
2019-06-01T12:38:17.699Z,24.70
2019-06-01T12:43:24.787Z,24.50
2019-06-01T12:48:32.417Z,25.50
2019-06-01T12:53:40.373Z,27.30
2019-06-01T12:58:48.222Z,28.90
2019-06-01T13:03:55.302Z,28.60
2019-06-01T13:09:02.267Z,28.40
2019-06-01T13:14:10.928Z,27.70
2019-06-01T13:19:18.006Z,28.90
2019-06-01T13:24:25.092Z,29.60
2019-06-01T13:29:32.103Z,29.00
2019-06-01T13:34:42.518Z,28.60
2019-06-01T13:39:54.229Z,29.40
2019-06-01T13:44:58.644Z,29.90
2019-06-01T13:50:06.990Z,27.90
2019-06-01T13:55:14.863Z,27.40
2019-06-01T14:00:30.339Z,27.80
2019-06-01T14:05:31.556Z,27.40
2019-06-01T14:10:38.903Z,26.90
2019-06-01T14:15:47.294Z,27.20
2019-06-01T14:20:56.025Z,27.70
2019-06-01T14:26:03.208Z,26.20
2019-06-01T14:31:10.197Z,26.30
2019-06-01T14:36:17.817Z,28.00
2019-06-01T14:41:25.117Z,27.90
2019-06-01T14:46:32.674Z,26.90
2019-06-01T14:51:39.767Z,25.60
2019-06-01T14:56:47.611Z,25.10
2019-06-01T15:01:56.177Z,24.80
2019-06-01T15:07:03.724Z,24.40
2019-06-01T15:12:11.066Z,23.90
2019-06-01T15:17:18.119Z,23.60
2019-06-01T15:22:25.986Z,23.30
2019-06-01T15:27:33.050Z,22.30
2019-06-01T15:32:40.222Z,21.30
2019-06-01T15:37:47.397Z,23.40
2019-06-01T15:42:55.229Z,25.00
2019-06-01T15:48:02.458Z,24.50
2019-06-01T15:53:09.998Z,23.90
2019-06-01T15:58:17.041Z,23.90
2019-06-01T16:03:24.001Z,25.00
2019-06-01T16:08:31.756Z,26.40
2019-06-01T16:13:38.852Z,26.10
2019-06-01T16:18:46.045Z,25.70
2019-06-01T16:23:54.112Z,24.50
2019-06-01T16:29:03.303Z,23.60
2019-06-01T16:34:10.858Z,23.30
2019-06-01T16:39:18.026Z,24.00
2019-06-01T16:44:25.673Z,24.70
2019-06-01T16:49:33.183Z,24.80
2019-06-01T16:54:40.208Z,24.80
2019-06-01T16:59:47.277Z,24.80
2019-06-01T17:04:54.368Z,24.80
2019-06-01T17:10:19.575Z,24.30
2019-06-01T17:15:11.221Z,23.90
2019-06-01T17:20:47.738Z,23.80
2019-06-01T17:25:54.854Z,23.70
2019-06-01T17:31:02.274Z,23.40
2019-06-01T17:36:09.580Z,23.10
2019-06-01T17:41:16.762Z,22.80
2019-06-01T17:46:23.780Z,22.50
2019-06-01T17:51:31.957Z,22.00
2019-06-01T17:56:39.160Z,21.50
2019-06-01T18:01:46.325Z,20.90
2019-06-01T18:06:53.491Z,20.50
2019-06-01T18:12:01.873Z,20.20
2019-06-01T18:17:10.337Z,19.80
2019-06-01T18:22:17.555Z,19.50
2019-06-01T18:27:24.718Z,19.10
2019-06-01T18:32:31.778Z,18.90
2019-06-01T18:37:38.804Z,18.60
2019-06-01T18:42:49.828Z,18.30
2019-06-01T18:47:57.120Z,18.00
2019-06-01T18:53:05.846Z,17.80
2019-06-01T18:58:14.669Z,17.60
2019-06-01T19:03:21.976Z,17.40
2019-06-01T19:08:29.439Z,17.10
2019-06-01T19:13:36.529Z,17.00
2019-06-01T19:18:43.568Z,16.90
2019-06-01T19:23:51.821Z,16.70
2019-06-01T19:28:59.007Z,16.50
2019-06-01T19:34:06.893Z,16.40
2019-06-01T19:39:15.201Z,16.20
2019-06-01T19:44:22.349Z,16.10
2019-06-01T19:49:29.536Z,16.00
2019-06-01T19:54:36.626Z,15.90
2019-06-01T19:59:43.802Z,15.80
2019-06-01T20:04:51.814Z,15.70
2019-06-01T20:09:59.375Z,15.60
2019-06-01T20:15:06.624Z,15.50
2019-06-01T20:20:16.955Z,15.40
2019-06-01T20:25:24.133Z,15.50
2019-06-01T20:30:31.201Z,15.40
2019-06-01T20:35:38.289Z,15.30
2019-06-01T20:40:45.530Z,15.20
2019-06-01T20:45:56.627Z,15.00
2019-06-01T20:51:01.878Z,14.90
2019-06-01T20:56:09.041Z,14.80
2019-06-01T21:01:16.154Z,14.70
2019-06-01T21:06:24.038Z,14.60
2019-06-01T21:11:31.573Z,14.70
2019-06-01T21:16:38.711Z,14.60
2019-06-01T21:21:47.035Z,14.50
2019-06-01T21:26:55.013Z,14.50
2019-06-01T21:32:02.115Z,14.50
2019-06-01T21:37:09.972Z,14.50
2019-06-01T21:42:17.431Z,14.40
2019-06-01T21:47:25.827Z,14.40
2019-06-01T21:52:32.976Z,14.40
2019-06-01T21:57:40.076Z,14.50
2019-06-01T22:02:47.491Z,14.60
2019-06-01T22:07:54.565Z,14.80
2019-06-01T22:13:17.535Z,14.80
2019-06-01T22:18:10.461Z,14.90
2019-06-01T22:23:17.934Z,15.00
2019-06-01T22:28:26.292Z,15.00
2019-06-01T22:33:34.563Z,15.00
2019-06-01T22:38:42.257Z,14.90
2019-06-01T22:43:49.304Z,14.90
2019-06-01T22:48:56.431Z,14.80
2019-06-01T22:54:05.198Z,14.80
2019-06-01T22:59:12.397Z,14.80
2019-06-01T23:04:20.854Z,14.70
2019-06-01T23:09:29.477Z,14.60
2019-06-01T23:14:36.928Z,14.60
2019-06-01T23:19:44.143Z,14.60
2019-06-01T23:24:51.340Z,14.60
2019-06-01T23:29:58.394Z,14.60
2019-06-01T23:35:06.501Z,14.60
2019-06-01T23:40:13.697Z,14.50
2019-06-01T23:45:20.773Z,14.50
2019-06-01T23:50:29.161Z,14.50
2019-06-01T23:55:36.421Z,14.50
